createdAt,value
2022-08-05T00:00:18.334Z,24.00
2022-08-05T00:02:50.471Z,23.80
2022-08-05T00:05:27.120Z,23.80
2022-08-05T00:08:34.169Z,23.80
2022-08-05T00:10:56.575Z,23.70
2022-08-05T00:13:38.383Z,23.70
2022-08-05T00:16:12.540Z,23.60
2022-08-05T00:18:42.734Z,23.50
2022-08-05T00:21:12.406Z,23.50
2022-08-05T00:23:46.044Z,23.40
2022-08-05T00:26:16.387Z,23.30
2022-08-05T00:28:45.788Z,23.20
2022-08-05T00:31:13.406Z,23.20
2022-08-05T00:34:55.424Z,23.20
2022-08-05T00:37:11.368Z,23.20
2022-08-05T00:39:14.406Z,23.20
2022-08-05T00:41:55.638Z,23.60
2022-08-05T00:44:30.826Z,23.70
2022-08-05T00:47:02.024Z,23.80
2022-08-05T00:49:32.422Z,23.70
2022-08-05T00:52:00.265Z,23.80
2022-08-05T00:54:28.185Z,23.80
2022-08-05T00:56:57.159Z,23.80
2022-08-05T00:59:24.002Z,23.80
2022-08-05T01:01:51.432Z,23.50
2022-08-05T01:04:20.150Z,23.40
2022-08-05T01:06:53.923Z,23.50
2022-08-05T01:09:22.693Z,23.30
2022-08-05T01:11:53.633Z,23.10
2022-08-05T01:14:37.554Z,23.30
2022-08-05T01:17:14.577Z,23.10
2022-08-05T01:20:06.162Z,23.10
2022-08-05T01:23:01.107Z,23.10
2022-08-05T01:26:08.490Z,23.00
2022-08-05T01:28:48.785Z,23.00
2022-08-05T01:31:21.047Z,23.10
2022-08-05T01:33:55.438Z,23.00
2022-08-05T01:36:29.089Z,23.00
2022-08-05T01:39:01.019Z,22.90
2022-08-05T01:41:32.504Z,22.80
2022-08-05T01:44:02.084Z,22.80
2022-08-05T01:46:42.191Z,22.80
2022-08-05T01:49:23.918Z,22.80
2022-08-05T01:51:58.354Z,22.60
2022-08-05T01:54:30.072Z,22.60
2022-08-05T01:58:10.382Z,22.60
2022-08-05T01:59:48.294Z,22.50
2022-08-05T02:02:17.981Z,22.40
2022-08-05T02:04:49.705Z,22.30
2022-08-05T02:07:21.855Z,22.20
2022-08-05T02:09:51.006Z,22.00
2022-08-05T02:12:32.753Z,22.10
2022-08-05T02:15:13.866Z,22.00
2022-08-05T02:18:32.235Z,22.00
2022-08-05T02:20:52.525Z,21.80
2022-08-05T02:23:24.185Z,21.90
2022-08-05T02:25:53.482Z,21.90
2022-08-05T02:28:29.168Z,21.70
2022-08-05T02:31:14.825Z,21.50
2022-08-05T02:33:48.607Z,21.60
2022-08-05T02:36:27.264Z,21.50
2022-08-05T02:38:57.566Z,21.40
2022-08-05T02:41:28.290Z,21.20
2022-08-05T02:44:12.238Z,21.20
2022-08-05T02:46:53.835Z,21.20
2022-08-05T02:49:35.680Z,21.20
2022-08-05T02:52:07.903Z,21.30
2022-08-05T02:54:37.648Z,21.30
2022-08-05T02:58:10.664Z,21.30
2022-08-05T03:00:00.028Z,21.20
2022-08-05T03:02:36.730Z,21.10
2022-08-05T03:05:06.914Z,21.00
2022-08-05T03:07:59.248Z,21.10
2022-08-05T03:10:24.855Z,21.10
2022-08-05T03:12:54.189Z,21.00
2022-08-05T03:15:23.586Z,21.10
2022-08-05T03:17:54.071Z,21.10
2022-08-05T03:20:23.692Z,21.10
2022-08-05T03:22:51.388Z,21.30
2022-08-05T03:25:32.462Z,21.40
2022-08-05T03:28:03.634Z,21.60
2022-08-05T03:30:34.672Z,21.60
2022-08-05T03:33:06.099Z,21.60
2022-08-05T03:35:33.687Z,21.60
2022-08-05T03:38:02.552Z,21.60
2022-08-05T03:40:32.300Z,21.60
2022-08-05T03:43:01.416Z,21.60
2022-08-05T03:45:58.216Z,21.60
2022-08-05T03:48:28.176Z,21.50
2022-08-05T03:52:37.321Z,21.50
2022-08-05T03:55:51.763Z,21.50
2022-08-05T03:56:46.885Z,21.50
2022-08-05T03:59:46.582Z,21.50
2022-08-05T04:02:17.613Z,21.50
2022-08-05T04:05:05.763Z,21.50
2022-08-05T04:07:57.247Z,21.60
2022-08-05T04:10:33.276Z,21.60
2022-08-05T04:13:05.414Z,21.60
2022-08-05T04:15:35.877Z,21.70
2022-08-05T04:18:07.255Z,21.70
2022-08-05T04:20:36.560Z,21.80
2022-08-05T04:23:03.678Z,21.80
2022-08-05T04:25:57.900Z,21.90
2022-08-05T04:28:18.300Z,21.90
2022-08-05T04:30:45.953Z,21.90
2022-08-05T04:33:13.670Z,22.00
2022-08-05T04:36:11.382Z,22.00
2022-08-05T04:38:39.661Z,22.10
2022-08-05T04:41:09.649Z,22.20
2022-08-05T04:43:40.679Z,22.20
2022-08-05T04:46:15.190Z,22.20
2022-08-05T04:48:57.961Z,22.40
2022-08-05T04:51:25.734Z,22.50
2022-08-05T04:53:57.448Z,22.60
2022-08-05T04:56:32.913Z,22.70
2022-08-05T04:59:21.491Z,22.80
2022-08-05T05:02:35.083Z,23.10
2022-08-05T05:04:38.334Z,23.30
2022-08-05T05:07:09.424Z,23.70
2022-08-05T05:09:37.387Z,24.00
2022-08-05T05:12:06.324Z,24.00
2022-08-05T05:14:36.248Z,24.10
2022-08-05T05:17:03.719Z,24.20
2022-08-05T05:19:37.187Z,24.40
2022-08-05T05:22:24.395Z,24.30
2022-08-05T05:24:58.354Z,24.30
2022-08-05T05:27:45.911Z,24.30
2022-08-05T05:30:29.542Z,24.40
2022-08-05T05:33:09.057Z,24.40
2022-08-05T05:35:46.733Z,24.40
2022-08-05T05:38:22.628Z,24.30
2022-08-05T05:40:57.591Z,24.40
2022-08-05T05:43:54.828Z,24.50
2022-08-05T05:46:15.958Z,24.50
2022-08-05T05:48:46.315Z,24.50
2022-08-05T05:51:22.367Z,24.50
2022-08-05T05:53:57.747Z,24.50
2022-08-05T05:56:32.782Z,24.40
2022-08-05T05:59:06.374Z,24.40
2022-08-05T06:01:57.035Z,24.40
2022-08-05T06:04:25.286Z,24.40
2022-08-05T06:06:52.188Z,24.40
2022-08-05T06:09:25.783Z,24.60
2022-08-05T06:12:03.298Z,24.60
2022-08-05T06:14:34.852Z,24.70
2022-08-05T06:17:22.282Z,24.70
2022-08-05T06:19:57.190Z,24.80
2022-08-05T06:22:29.551Z,24.60
2022-08-05T06:24:56.718Z,24.80
2022-08-05T06:28:10.905Z,24.90
2022-08-05T06:30:16.789Z,25.10
2022-08-05T06:32:48.189Z,25.10
2022-08-05T06:36:03.788Z,24.90
2022-08-05T06:38:11.743Z,24.70
2022-08-05T06:40:44.358Z,24.60
2022-08-05T06:43:58.297Z,24.70
2022-08-05T06:46:06.707Z,24.60
2022-08-05T06:48:53.075Z,24.60
2022-08-05T06:51:29.084Z,24.60
2022-08-05T06:53:58.958Z,24.60
2022-08-05T06:56:27.041Z,24.70
2022-08-05T06:58:57.503Z,24.80
2022-08-05T07:01:27.759Z,24.90
2022-08-05T07:04:01.302Z,25.10
2022-08-05T07:06:29.333Z,25.40
2022-08-05T07:08:59.011Z,25.40
2022-08-05T07:11:28.628Z,25.40
2022-08-05T07:14:15.519Z,25.30
2022-08-05T07:18:08.177Z,25.20
2022-08-05T07:22:29.172Z,25.40
2022-08-05T07:24:59.272Z,25.40
2022-08-05T07:27:26.185Z,25.60
2022-08-05T07:30:23.827Z,25.80
2022-08-05T07:32:44.092Z,25.70
2022-08-05T07:35:55.801Z,25.60
2022-08-05T07:37:59.438Z,25.60
2022-08-05T07:40:33.044Z,25.50
2022-08-05T07:43:04.767Z,25.50
2022-08-05T07:45:56.979Z,25.30
2022-08-05T07:49:02.194Z,25.20
2022-08-05T07:51:23.289Z,25.20
2022-08-05T07:53:59.182Z,25.20
2022-08-05T07:56:59.791Z,25.30
2022-08-05T07:59:15.835Z,25.30
2022-08-05T08:01:52.220Z,25.20
2022-08-05T08:04:38.065Z,25.20
2022-08-05T08:07:07.102Z,25.10
2022-08-05T08:09:35.034Z,25.10
2022-08-05T08:12:13.592Z,25.10
2022-08-05T08:14:47.128Z,25.10
2022-08-05T08:17:16.188Z,25.10
2022-08-05T08:20:22.114Z,25.10
2022-08-05T08:22:32.222Z,25.10
2022-08-05T08:25:02.799Z,25.20
2022-08-05T08:27:40.138Z,25.20
2022-08-05T08:30:29.414Z,25.20
2022-08-05T08:33:04.520Z,25.20
2022-08-05T08:35:35.226Z,25.10
2022-08-05T08:38:08.586Z,25.00
2022-08-05T08:40:39.781Z,24.90
2022-08-05T08:44:54.731Z,24.80
2022-08-05T08:45:55.168Z,24.80
2022-08-05T08:48:41.617Z,24.70
2022-08-05T08:52:01.889Z,24.70
2022-08-05T08:53:57.117Z,24.60
2022-08-05T08:56:27.198Z,24.50
2022-08-05T08:58:54.821Z,24.40
2022-08-05T09:01:25.813Z,24.40
2022-08-05T09:03:58.339Z,24.40
2022-08-05T09:06:29.818Z,24.40
2022-08-05T09:09:00.011Z,24.40
2022-08-05T09:11:52.711Z,24.40
2022-08-05T09:14:58.375Z,24.50
2022-08-05T09:17:02.562Z,24.50
2022-08-05T09:19:36.214Z,24.60
2022-08-05T09:22:23.426Z,24.60
2022-08-05T09:24:58.491Z,24.60
2022-08-05T09:28:04.384Z,24.60
2022-08-05T09:30:23.422Z,24.60
2022-08-05T09:32:50.822Z,24.60
2022-08-05T09:35:26.632Z,24.70
2022-08-05T09:38:16.986Z,24.70
2022-08-05T09:40:52.022Z,24.60
2022-08-05T09:43:41.830Z,24.60
2022-08-05T09:46:28.956Z,24.50
2022-08-05T09:49:06.987Z,24.40
2022-08-05T09:51:38.179Z,24.30
2022-08-05T09:54:08.598Z,24.30
2022-08-05T09:56:38.053Z,24.20
2022-08-05T09:59:11.268Z,24.20
2022-08-05T10:01:46.506Z,24.20
2022-08-05T10:04:16.063Z,24.20
2022-08-05T10:06:59.231Z,24.20
2022-08-05T10:09:28.197Z,24.10
2022-08-05T10:12:31.697Z,24.10
2022-08-05T10:15:20.990Z,23.70
2022-08-05T10:18:12.770Z,23.30
2022-08-05T10:20:49.609Z,23.10
2022-08-05T10:23:33.960Z,23.20
2022-08-05T10:26:08.093Z,23.20
2022-08-05T10:28:43.876Z,23.40
2022-08-05T10:32:53.843Z,23.70
2022-08-05T10:34:00.685Z,23.70
2022-08-05T10:36:28.221Z,23.70
2022-08-05T10:39:02.050Z,23.70
2022-08-05T10:41:47.027Z,23.70
2022-08-05T10:44:19.005Z,23.70
2022-08-05T10:46:50.859Z,23.70
2022-08-05T10:49:27.414Z,23.80
2022-08-05T10:52:03.341Z,23.60
2022-08-05T10:55:02.097Z,23.70
2022-08-05T10:57:32.326Z,23.60
2022-08-05T11:00:20.732Z,23.60
2022-08-05T11:03:23.915Z,23.50
2022-08-05T11:06:05.281Z,23.40
2022-08-05T11:08:37.239Z,23.30
2022-08-05T11:11:52.675Z,23.20
2022-08-05T11:17:57.667Z,23.80
2022-08-05T11:20:44.325Z,24.10
2022-08-05T11:24:05.601Z,24.20
2022-08-05T11:26:29.223Z,24.30
2022-08-05T11:29:06.979Z,24.40
2022-08-05T11:31:57.045Z,24.70
2022-08-05T11:34:51.144Z,25.20
2022-08-05T11:38:26.248Z,25.60
2022-08-05T11:41:00.817Z,25.40
2022-08-05T11:44:04.602Z,25.60
2022-08-05T11:46:32.677Z,25.40
2022-08-05T11:49:02.066Z,25.60
2022-08-05T11:51:44.186Z,26.00
2022-08-05T11:54:33.341Z,25.80
2022-08-05T11:57:08.430Z,25.60
2022-08-05T11:59:50.759Z,25.80
2022-08-05T12:02:30.616Z,25.90
2022-08-05T12:05:07.471Z,26.00
2022-08-05T12:08:08.220Z,26.40
2022-08-05T12:10:38.476Z,26.60
2022-08-05T12:13:28.118Z,26.40
2022-08-05T12:16:18.880Z,26.50
2022-08-05T12:18:48.663Z,26.60
2022-08-05T12:21:24.123Z,26.70
2022-08-05T12:24:04.902Z,26.90
2022-08-05T12:26:38.685Z,26.70
2022-08-05T12:29:09.422Z,27.00
2022-08-05T12:31:46.160Z,27.10
2022-08-05T12:34:20.560Z,27.40
2022-08-05T12:36:52.398Z,27.30
2022-08-05T12:39:19.365Z,27.40
2022-08-05T12:41:46.581Z,27.20
2022-08-05T12:44:28.443Z,27.60
2022-08-05T12:47:00.600Z,27.40
2022-08-05T12:50:04.782Z,27.60
2022-08-05T12:52:39.230Z,27.70
2022-08-05T12:55:25.368Z,27.90
2022-08-05T12:58:38.494Z,28.10
2022-08-05T13:02:04.443Z,28.10
2022-08-05T13:03:42.431Z,28.40
2022-08-05T13:06:17.506Z,28.40
2022-08-05T13:08:51.434Z,28.60
2022-08-05T13:12:01.326Z,28.60
2022-08-05T13:14:35.888Z,28.50
2022-08-05T13:17:32.042Z,28.50
2022-08-05T13:20:24.159Z,28.20
2022-08-05T13:22:53.581Z,27.80
2022-08-05T13:25:21.905Z,27.50
2022-08-05T13:27:51.815Z,27.70
2022-08-05T13:30:36.149Z,27.80
2022-08-05T13:33:06.055Z,27.70
2022-08-05T13:35:47.277Z,28.10
2022-08-05T13:38:30.636Z,28.20
2022-08-05T13:41:01.430Z,28.00
2022-08-05T13:43:44.853Z,27.90
2022-08-05T13:46:16.525Z,27.90
2022-08-05T13:49:02.917Z,27.70
2022-08-05T13:51:40.202Z,27.70
2022-08-05T13:54:12.343Z,27.60
2022-08-05T13:56:45.381Z,27.60
2022-08-05T13:59:21.138Z,27.80
2022-08-05T14:01:57.826Z,27.70
2022-08-05T14:04:51.441Z,27.70
2022-08-05T14:07:55.731Z,27.60
2022-08-05T14:10:18.364Z,27.70
2022-08-05T14:12:54.919Z,27.70
2022-08-05T14:16:06.817Z,27.60
2022-08-05T14:18:17.680Z,27.60
2022-08-05T14:20:47.979Z,27.90
2022-08-05T14:23:23.964Z,28.30
2022-08-05T14:25:54.119Z,28.00
2022-08-05T14:28:27.053Z,27.80
2022-08-05T14:30:55.257Z,27.60
2022-08-05T14:33:23.303Z,27.40
2022-08-05T14:35:53.929Z,27.30
2022-08-05T14:38:32.064Z,27.20
2022-08-05T14:41:06.693Z,27.10
2022-08-05T14:44:01.538Z,27.00
2022-08-05T14:46:28.131Z,27.10
2022-08-05T14:48:59.460Z,27.10
2022-08-05T14:51:31.260Z,27.00
2022-08-05T14:54:26.274Z,27.10
2022-08-05T14:56:48.982Z,27.10
2022-08-05T14:59:18.464Z,27.00
2022-08-05T15:01:49.623Z,26.90
2022-08-05T15:04:22.451Z,26.80
2022-08-05T15:06:51.314Z,26.70
2022-08-05T15:09:52.561Z,26.60
2022-08-05T15:12:09.023Z,26.50
2022-08-05T15:14:48.079Z,26.40
2022-08-05T15:17:46.749Z,26.30
2022-08-05T15:20:05.440Z,26.30
2022-08-05T15:22:32.767Z,26.20
2022-08-05T15:24:59.686Z,26.20
2022-08-05T15:27:32.184Z,26.20
2022-08-05T15:30:03.359Z,26.10
2022-08-05T15:32:30.316Z,26.00
2022-08-05T15:34:58.529Z,26.00
2022-08-05T15:38:32.532Z,25.90
2022-08-05T15:41:01.991Z,25.90
2022-08-05T15:43:12.569Z,25.70
2022-08-05T15:45:46.804Z,25.60
2022-08-05T15:48:15.213Z,25.60
2022-08-05T15:50:43.586Z,25.60
2022-08-05T15:53:12.693Z,25.50
2022-08-05T15:56:02.986Z,25.50
2022-08-05T15:58:35.588Z,25.40
2022-08-05T16:01:16.699Z,25.10
2022-08-05T16:03:48.457Z,25.10
2022-08-05T16:06:15.880Z,25.00
2022-08-05T16:08:50.327Z,24.90
2022-08-05T16:11:18.591Z,24.90
2022-08-05T16:13:48.432Z,24.80
2022-08-05T16:16:21.223Z,24.70
2022-08-05T16:18:52.911Z,24.60
2022-08-05T16:21:20.751Z,24.60
2022-08-05T16:24:12.906Z,24.50
2022-08-05T16:26:56.217Z,24.40
2022-08-05T16:29:24.886Z,24.10
2022-08-05T16:31:57.329Z,24.00
2022-08-05T16:34:26.278Z,23.90
2022-08-05T16:36:53.938Z,23.80
2022-08-05T16:39:21.253Z,23.80
2022-08-05T16:42:13.717Z,23.90
2022-08-05T16:44:57.098Z,23.90
2022-08-05T16:47:28.868Z,23.90
2022-08-05T16:50:04.174Z,23.90
2022-08-05T16:52:32.607Z,24.00
2022-08-05T16:55:00.604Z,23.90
2022-08-05T16:57:53.215Z,24.00
2022-08-05T17:00:25.756Z,24.10
2022-08-05T17:02:58.259Z,24.00
2022-08-05T17:05:25.131Z,23.90
2022-08-05T17:07:54.581Z,23.70
2022-08-05T17:10:22.117Z,23.40
2022-08-05T17:12:54.816Z,23.40
2022-08-05T17:15:21.930Z,23.30
2022-08-05T17:17:55.101Z,23.20
2022-08-05T17:20:22.379Z,23.10
2022-08-05T17:22:55.447Z,22.90
2022-08-05T17:25:39.480Z,22.70
2022-08-05T17:28:07.706Z,22.60
2022-08-05T17:30:50.699Z,22.50
2022-08-05T17:33:19.936Z,22.40
2022-08-05T17:36:07.769Z,22.30
2022-08-05T17:38:34.294Z,22.10
2022-08-05T17:41:01.974Z,22.00
2022-08-05T17:43:50.611Z,21.90
2022-08-05T17:46:15.730Z,21.60
2022-08-05T17:48:47.734Z,21.50
2022-08-05T17:51:21.428Z,21.30
2022-08-05T17:53:50.894Z,21.20
2022-08-05T17:56:22.626Z,21.00
2022-08-05T17:58:50.138Z,21.00
2022-08-05T18:01:19.153Z,21.00
2022-08-05T18:03:58.626Z,20.80
2022-08-05T18:06:31.090Z,20.70
2022-08-05T18:08:58.568Z,20.70
2022-08-05T18:11:32.905Z,20.70
2022-08-05T18:14:03.429Z,20.60
2022-08-05T18:16:30.981Z,20.60
2022-08-05T18:18:57.880Z,20.50
2022-08-05T18:21:26.514Z,20.50
2022-08-05T18:23:55.497Z,20.50
2022-08-05T18:26:27.360Z,20.40
2022-08-05T18:28:57.180Z,20.50
2022-08-05T18:31:24.342Z,20.40
2022-08-05T18:33:52.363Z,20.50
2022-08-05T18:36:19.450Z,20.40
2022-08-05T18:38:46.677Z,20.20
2022-08-05T18:41:58.088Z,20.20
2022-08-05T18:44:05.520Z,20.20
2022-08-05T18:46:33.630Z,20.20
2022-08-05T18:49:21.018Z,20.20
2022-08-05T18:52:08.976Z,19.70
2022-08-05T18:54:41.334Z,19.20
2022-08-05T18:57:15.298Z,18.90
2022-08-05T19:00:02.566Z,18.80
2022-08-05T19:02:29.656Z,18.80
2022-08-05T19:05:03.207Z,18.60
2022-08-05T19:07:47.986Z,18.90
2022-08-05T19:10:28.243Z,18.80
2022-08-05T19:12:58.418Z,18.70
2022-08-05T19:16:00.235Z,18.60
2022-08-05T19:18:21.871Z,18.70
2022-08-05T19:20:53.699Z,18.80
2022-08-05T19:23:22.369Z,18.80
2022-08-05T19:26:08.422Z,18.90
2022-08-05T19:28:41.818Z,19.00
2022-08-05T19:31:13.660Z,19.00
2022-08-05T19:33:48.566Z,19.10
2022-08-05T19:36:26.919Z,19.00
2022-08-05T19:39:01.208Z,19.00
2022-08-05T19:41:57.984Z,18.90
2022-08-05T19:44:17.476Z,18.90
2022-08-05T19:46:45.611Z,18.90
2022-08-05T19:49:16.571Z,18.90
2022-08-05T19:52:05.948Z,19.00
2022-08-05T19:54:32.910Z,18.90
2022-08-05T19:57:06.540Z,18.90
2022-08-05T19:59:56.355Z,18.90
2022-08-05T20:02:26.207Z,18.80
2022-08-05T20:04:55.403Z,18.90
2022-08-05T20:07:46.205Z,18.90
2022-08-05T20:10:13.797Z,18.80
2022-08-05T20:12:47.929Z,18.80
2022-08-05T20:15:48.603Z,18.90
2022-08-05T20:18:10.441Z,18.80
2022-08-05T20:20:55.154Z,18.80
2022-08-05T20:23:39.505Z,18.70
2022-08-05T20:26:16.168Z,18.70
2022-08-05T20:28:48.664Z,18.70
2022-08-05T20:31:16.853Z,18.70
2022-08-05T20:33:44.838Z,18.60
2022-08-05T20:36:12.268Z,18.60
2022-08-05T20:38:53.589Z,18.60
2022-08-05T20:41:27.436Z,18.60
2022-08-05T20:44:18.788Z,18.60
2022-08-05T20:46:59.117Z,18.50
2022-08-05T20:49:27.098Z,18.60
2022-08-05T20:51:55.222Z,18.50
2022-08-05T20:54:25.337Z,18.60
2022-08-05T20:56:52.959Z,18.50
2022-08-05T20:59:26.403Z,18.50
2022-08-05T21:01:57.203Z,18.50
2022-08-05T21:04:27.031Z,18.40
2022-08-05T21:06:54.797Z,18.40
2022-08-05T21:09:22.822Z,18.40
2022-08-05T21:12:09.147Z,18.40
2022-08-05T21:14:38.194Z,18.30
2022-08-05T21:17:05.868Z,18.30
2022-08-05T21:19:46.611Z,18.20
2022-08-05T21:22:18.250Z,18.10
2022-08-05T21:24:49.043Z,18.20
2022-08-05T21:27:20.596Z,18.20
2022-08-05T21:29:54.033Z,18.20
2022-08-05T21:32:27.472Z,18.30
2022-08-05T21:35:08.724Z,18.20
2022-08-05T21:37:47.455Z,18.10
2022-08-05T21:40:24.196Z,18.00
2022-08-05T21:42:52.987Z,18.10
2022-08-05T21:45:24.880Z,18.00
2022-08-05T21:48:10.831Z,18.00
2022-08-05T21:50:41.845Z,18.00
2022-08-05T21:53:20.071Z,17.90
2022-08-05T21:56:05.638Z,17.90
2022-08-05T21:58:34.084Z,17.80
2022-08-05T22:01:04.741Z,17.90
2022-08-05T22:03:51.735Z,17.80
2022-08-05T22:06:22.362Z,17.80
2022-08-05T22:08:51.624Z,17.80
2022-08-05T22:11:34.893Z,17.80
2022-08-05T22:14:19.870Z,17.70
2022-08-05T22:16:55.895Z,17.60
2022-08-05T22:20:03.522Z,17.70
2022-08-05T22:22:11.665Z,17.60
2022-08-05T22:24:57.711Z,17.50
2022-08-05T22:28:08.571Z,17.50
2022-08-05T22:30:34.881Z,17.40
2022-08-05T22:33:03.540Z,17.40
2022-08-05T22:35:38.570Z,17.50
2022-08-05T22:38:15.497Z,17.40
2022-08-05T22:40:42.361Z,17.30
2022-08-05T22:43:36.674Z,17.40
2022-08-05T22:46:11.875Z,17.40
2022-08-05T22:48:40.627Z,17.50
2022-08-05T22:51:08.007Z,17.40
2022-08-05T22:53:42.605Z,17.50
2022-08-05T22:56:17.407Z,17.40
2022-08-05T22:59:00.078Z,17.40
2022-08-05T23:02:04.578Z,17.30
2022-08-05T23:04:16.727Z,17.30
2022-08-05T23:06:43.557Z,17.20
2022-08-05T23:09:27.245Z,17.30
2022-08-05T23:11:59.317Z,17.30
2022-08-05T23:14:32.259Z,17.20
2022-08-05T23:17:24.593Z,17.20
2022-08-05T23:20:02.780Z,17.20
2022-08-05T23:22:30.832Z,17.20
2022-08-05T23:24:58.190Z,17.20
2022-08-05T23:27:31.248Z,17.20
2022-08-05T23:30:10.734Z,17.10
2022-08-05T23:32:37.820Z,17.10
2022-08-05T23:35:12.130Z,17.00
2022-08-05T23:37:39.081Z,17.00
2022-08-05T23:40:07.773Z,17.00
2022-08-05T23:42:37.348Z,16.90
2022-08-05T23:45:14.379Z,16.90
2022-08-05T23:47:47.687Z,16.80
2022-08-05T23:50:15.264Z,16.70
2022-08-05T23:52:49.970Z,16.70
2022-08-05T23:55:19.065Z,16.70
2022-08-05T23:57:48.892Z,16.60
